ブダペスト の空港の天気 - METARとTAF

ブダペスト/フェリヘギ空港 ( LHBP / BUD ) - ハンガリー ブダペスト
飛行場実況気象(Metar)
観測時間07/20 13:30 CEST (07/20 11:30 UTC)
風向・風速南 3m/s
視程10km以上
天気現象
なし
気温30℃
湿度40%
気圧1017hPa
METARLHBP 201130Z 19006KT 110V240 CAVOK 30/15 Q1017 NOSIG
過去の天気等 Google飛行場航空写真 Wunderground天気予報

過去48時間のMETAR

飛行場予報(TAF)
発表時間: 7/20 13:15 CEST (7/20 11:15 UTC)
予報対象時間: 20日14時 CEST ~ 21日14時 CEST
風向・風速南南西 4m/s
視程10km以上
なし
20日21時 CEST ~ 20日24時 CEST に徐々に
風向・風速不定 2m/s
21日10時 CEST ~ 21日12時 CEST に徐々に
風向・風速南南西 5m/s
TAF LHBP 201115Z 2012/2112 20008KT CAVOK
BECMG 2019/2022 VRB03KT
BECMG 2108/2110 21009KT